Time;durP1;ratioP1;P1;durP2;ratioP2;P2;SDS_P1;SDS_P2;PMS_P1;PMS_P2;Temp;Humidity;BMP_temperature;BMP_pressure;BME280_temperature;BME280_humidity;BME280_pressure;Samples;Min_cycle;Max_cycle;Signal;HPM_P1;HPM_P2
2022/08/22 00:00:21;;;;;;;1.10;1.10;;;24.80;67.00;;;;;;5068633;28;44215;-74
2022/08/22 00:03:11;;;;;;;1.30;1.30;;;24.90;66.70;;;;;;5066864;28;44637;-73
2022/08/22 00:06:00;;;;;;;1.20;1.20;;;25.00;66.20;;;;;;5068052;28;43807;-73
2022/08/22 00:08:32;;;;;;;1.10;1.10;;;25.10;65.90;;;;;;5068660;28;44036;-74
2022/08/22 00:11:02;;;;;;;1.13;1.13;;;25.10;65.70;;;;;;5068279;28;43968;-74
2022/08/22 00:13:33;;;;;;;1.10;1.10;;;25.10;65.60;;;;;;5066818;28;44800;-73
2022/08/22 00:16:06;;;;;;;0.97;0.97;;;25.00;65.90;;;;;;5068496;28;43456;-74
2022/08/22 00:18:37;;;;;;;1.00;1.00;;;25.00;66.40;;;;;;5068381;28;44046;-74
2022/08/22 00:21:10;;;;;;;1.00;1.00;;;25.00;66.30;;;;;;5068109;28;43899;-74
2022/08/22 00:23:40;;;;;;;1.10;1.10;;;24.90;66.00;;;;;;5067715;28;43931;-74
2022/08/22 00:26:14;;;;;;;1.00;1.00;;;24.90;66.70;;;;;;5068281;28;43460;-74
2022/08/22 00:28:44;;;;;;;1.10;1.10;;;24.80;66.70;;;;;;5067841;28;43893;-75
2022/08/22 00:31:18;;;;;;;1.00;1.00;;;24.80;66.60;;;;;;5068183;28;43967;-74
2022/08/22 00:33:50;;;;;;;1.10;1.10;;;24.80;66.20;;;;;;5067913;28;43872;-74
2022/08/22 00:36:23;;;;;;;1.00;1.00;;;24.80;66.80;;;;;;5066479;28;43971;-75
2022/08/22 00:38:54;;;;;;;1.10;1.10;;;24.80;67.20;;;;;;5068290;28;44098;-75
2022/08/22 00:41:33;;;;;;;1.07;1.07;;;24.90;66.90;;;;;;5067790;28;45104;-73
2022/08/22 00:44:12;;;;;;;1.20;1.20;;;25.00;66.40;;;;;;5066596;28;43983;-73
2022/08/22 00:47:12;;;;;;;1.10;1.10;;;25.10;65.90;;;;;;5067567;28;43907;-73
2022/08/22 00:50:01;;;;;;;1.10;1.10;;;25.10;65.60;;;;;;5032733;28;43736;-74
2022/08/22 00:52:54;;;;;;;1.10;1.10;;;25.10;65.50;;;;;;5036484;28;44064;-74
2022/08/22 00:55:45;;;;;;;1.00;1.00;;;25.00;66.50;;;;;;5067778;28;43764;-73
2022/08/22 00:58:28;;;;;;;1.30;1.30;;;25.00;66.20;;;;;;5059340;28;43945;-74
2022/08/22 01:01:01;;;;;;;0.93;0.93;;;25.00;66.30;;;;;;5067892;28;44055;-74
2022/08/22 01:03:53;;;;;;;1.10;1.10;;;24.90;65.90;;;;;;5067556;28;44911;-75
2022/08/22 01:06:24;;;;;;;1.03;1.03;;;24.90;66.50;;;;;;5067919;28;43963;-73
2022/08/22 01:09:03;;;;;;;1.07;1.07;;;24.80;66.70;;;;;;5067431;28;43981;-73
2022/08/22 01:11:50;;;;;;;1.20;1.20;;;24.80;66.60;;;;;;5067779;28;44051;-74
2022/08/22 01:14:33;;;;;;;1.10;1.10;;;24.80;66.20;;;;;;5067401;28;43892;-74
2022/08/22 01:17:26;;;;;;;0.80;0.80;;;24.80;66.80;;;;;;5067186;28;43979;-73
2022/08/22 01:20:24;;;;;;;1.20;1.20;;;24.80;67.10;;;;;;5067228;28;43980;-74
2022/08/22 01:23:31;;;;;;;1.10;1.10;;;24.90;66.80;;;;;;5067573;28;43458;-74
2022/08/22 01:29:18;;;;;;;1.10;1.10;;;25.00;66.20;;;;;;5103301;27;44303;-73
2022/08/22 01:32:30;;;;;;;1.00;1.00;;;25.10;65.80;;;;;;5103362;27;43667;-75
2022/08/22 01:35:18;;;;;;;1.10;1.10;;;25.00;66.00;;;;;;5090427;27;43976;-74
2022/08/22 01:38:19;;;;;;;1.00;1.00;;;24.90;66.50;;;;;;5101927;27;44099;-73
2022/08/22 01:41:17;;;;;;;1.00;1.00;;;24.90;66.40;;;;;;5102496;27;44019;-74
2022/08/22 01:44:10;;;;;;;1.00;1.00;;;24.90;66.10;;;;;;5102699;27;44428;-73
2022/08/22 01:46:44;;;;;;;1.10;1.10;;;24.80;66.90;;;;;;5102854;27;43893;-74
2022/08/22 01:49:15;;;;;;;1.10;1.10;;;24.80;66.90;;;;;;5103918;27;43958;-74
2022/08/22 01:51:48;;;;;;;1.00;1.00;;;24.80;66.60;;;;;;5102767;27;44003;-74
2022/08/22 01:54:24;;;;;;;0.90;0.90;;;24.80;66.40;;;;;;5103434;27;43923;-73
2022/08/22 01:56:57;;;;;;;1.10;1.10;;;24.70;67.00;;;;;;5102978;27;43948;-74
2022/08/22 01:59:31;;;;;;;1.13;1.13;;;24.80;67.10;;;;;;5102574;27;44207;-74
2022/08/22 02:02:09;;;;;;;1.00;1.00;;;24.80;66.60;;;;;;5102918;27;44119;-74
2022/08/22 02:04:40;;;;;;;1.10;1.10;;;25.00;66.30;;;;;;5102724;27;44009;-74
2022/08/22 02:07:13;;;;;;;0.93;0.93;;;25.10;65.80;;;;;;5101576;27;43988;-73
2022/08/22 02:09:45;;;;;;;1.00;1.00;;;25.10;65.70;;;;;;5103182;27;43445;-74
2022/08/22 02:12:24;;;;;;;1.00;1.00;;;25.10;65.60;;;;;;5102958;27;44028;-74
2022/08/22 02:14:55;;;;;;;1.03;1.03;;;25.00;66.10;;;;;;5100826;27;45607;-74
2022/08/22 02:17:28;;;;;;;1.00;1.00;;;25.00;66.40;;;;;;5103188;27;43989;-74
2022/08/22 02:19:58;;;;;;;1.03;1.03;;;25.00;66.30;;;;;;5102818;27;44057;-74
2022/08/22 02:22:33;;;;;;;1.00;1.00;;;24.90;66.00;;;;;;5102607;27;43742;-74
2022/08/22 02:25:05;;;;;;;0.97;0.97;;;24.90;66.70;;;;;;5102938;27;43403;-73
2022/08/22 02:27:39;;;;;;;0.90;0.90;;;24.80;67.50;;;;;;5100766;27;43402;-73
2022/08/22 02:30:09;;;;;;;0.90;0.90;;;24.80;66.60;;;;;;5101675;27;43923;-74
2022/08/22 02:32:45;;;;;;;1.00;1.00;;;24.80;66.30;;;;;;5102594;27;43917;-73
2022/08/22 02:35:20;;;;;;;0.90;0.90;;;24.80;66.90;;;;;;5102827;27;43376;-74
2022/08/22 02:37:59;;;;;;;1.03;1.03;;;24.80;67.20;;;;;;5100442;27;43908;-75
2022/08/22 02:40:30;;;;;;;0.90;0.90;;;24.80;66.80;;;;;;5089063;27;43905;-73
2022/08/22 02:43:00;;;;;;;1.05;1.05;;;25.00;66.40;;;;;;5086744;28;45844;-73
2022/08/22 02:45:34;;;;;;;0.90;0.90;;;25.00;66.10;;;;;;5088720;27;44058;-73
2022/08/22 02:48:04;;;;;;;1.00;1.00;;;25.00;66.00;;;;;;5088854;28;43419;-74
2022/08/22 02:50:37;;;;;;;1.00;1.00;;;25.00;65.80;;;;;;5089510;27;43277;-73
2022/08/22 02:53:10;;;;;;;1.10;1.10;;;25.00;66.20;;;;;;5087207;28;45578;-74
2022/08/22 02:55:50;;;;;;;0.80;0.80;;;24.90;66.50;;;;;;5088006;27;43952;-73
2022/08/22 02:58:23;;;;;;;0.93;0.93;;;24.90;66.40;;;;;;5088815;28;43912;-74
2022/08/22 03:00:59;;;;;;;1.07;1.07;;;24.90;66.20;;;;;;5088911;28;43963;-74
2022/08/22 03:03:30;;;;;;;1.00;1.00;;;24.80;66.70;;;;;;5088447;27;43942;-74
2022/08/22 03:06:00;;;;;;;1.00;1.00;;;24.80;67.00;;;;;;5087926;27;43326;-74
2022/08/22 03:08:31;;;;;;;1.07;1.07;;;24.80;66.70;;;;;;5088316;28;44071;-73
2022/08/22 03:11:08;;;;;;;1.00;1.00;;;25.00;66.30;;;;;;5088481;28;43988;-74
2022/08/22 03:13:40;;;;;;;1.10;1.10;;;25.10;66.00;;;;;;5087892;27;43978;-74
2022/08/22 03:16:13;;;;;;;0.80;0.80;;;25.10;65.90;;;;;;5087856;28;44077;-73
2022/08/22 03:18:45;;;;;;;0.90;0.90;;;25.00;65.70;;;;;;5086234;28;43949;-73
2022/08/22 03:21:15;;;;;;;0.90;0.90;;;25.00;66.00;;;;;;5088816;28;43403;-73
2022/08/22 03:23:49;;;;;;;1.07;1.07;;;24.90;66.40;;;;;;5085801;28;46520;-73
2022/08/22 03:26:18;;;;;;;1.00;1.00;;;24.90;66.40;;;;;;5088057;28;43506;-73
2022/08/22 03:28:50;;;;;;;1.00;1.00;;;24.80;66.10;;;;;;5087307;28;44100;-75
2022/08/22 03:31:27;;;;;;;0.90;0.90;;;24.80;66.60;;;;;;5086850;28;43888;-73
2022/08/22 03:34:21;;;;;;;0.90;0.90;;;24.80;66.90;;;;;;5085881;28;46726;-74
2022/08/22 03:36:58;;;;;;;0.83;0.83;;;24.80;66.80;;;;;;5087212;27;43502;-74
2022/08/22 03:39:50;;;;;;;0.87;0.87;;;24.80;66.50;;;;;;5086462;28;44026;-73
2022/08/22 03:42:35;;;;;;;1.00;1.00;;;24.70;67.20;;;;;;5088167;27;43943;-74
2022/08/22 03:45:15;;;;;;;0.80;0.80;;;24.70;67.10;;;;;;5087748;27;45020;-74
2022/08/22 03:47:53;;;;;;;0.80;0.80;;;24.80;66.70;;;;;;5085558;28;44611;-74
2022/08/22 03:51:00;;;;;;;0.80;0.80;;;25.00;66.20;;;;;;5087131;27;43815;-73
2022/08/22 03:53:39;;;;;;;0.90;0.90;;;25.10;66.00;;;;;;5087962;28;44359;-75
2022/08/22 03:56:34;;;;;;;0.97;0.97;;;25.00;65.80;;;;;;5087882;28;44007;-74
2022/08/22 03:59:12;;;;;;;1.10;1.10;;;25.00;65.80;;;;;;5085988;28;44005;-74
2022/08/22 04:01:51;;;;;;;0.83;0.83;;;24.90;66.40;;;;;;5086944;28;43829;-73
2022/08/22 04:04:51;;;;;;;1.00;1.00;;;24.90;66.40;;;;;;5088024;28;43943;-74
2022/08/22 04:07:50;;;;;;;1.00;1.00;;;24.80;66.20;;;;;;5087296;28;44042;-74
2022/08/22 04:10:28;;;;;;;0.90;0.90;;;24.80;66.50;;;;;;5065995;27;43955;-73
2022/08/22 04:13:13;;;;;;;0.90;0.90;;;24.80;67.10;;;;;;5087042;28;43960;-74
2022/08/22 04:15:55;;;;;;;1.10;1.10;;;24.80;67.00;;;;;;5087170;28;43936;-74
2022/08/22 04:18:58;;;;;;;0.90;0.90;;;24.70;66.50;;;;;;5087266;28;44848;-74
2022/08/22 04:22:02;;;;;;;0.80;0.80;;;24.70;67.20;;;;;;5087409;28;43971;-73
2022/08/22 04:24:36;;;;;;;1.00;1.00;;;24.70;67.10;;;;;;5068491;27;43795;-74
2022/08/22 04:27:08;;;;;;;1.23;0.90;;;24.80;66.60;;;;;;5085771;28;44201;-74
2022/08/22 04:29:38;;;;;;;1.10;1.10;;;25.00;66.10;;;;;;5086680;28;43943;-74
2022/08/22 04:32:09;;;;;;;0.80;0.80;;;25.10;65.80;;;;;;5082940;28;43955;-74
2022/08/22 04:34:42;;;;;;;1.00;1.00;;;25.10;65.60;;;;;;5066746;28;43906;-74
2022/08/22 04:37:15;;;;;;;0.90;0.90;;;25.00;65.60;;;;;;5067635;28;43916;-74
2022/08/22 04:39:51;;;;;;;1.00;1.00;;;25.00;66.10;;;;;;5066554;28;43889;-74
2022/08/22 04:42:21;;;;;;;0.97;0.97;;;24.90;66.30;;;;;;5066871;28;44032;-74
2022/08/22 04:45:04;;;;;;;0.90;0.90;;;24.90;66.20;;;;;;5066762;28;44023;-74
2022/08/22 04:47:35;;;;;;;0.97;0.97;;;24.80;66.00;;;;;;5067403;28;43948;-73
2022/08/22 04:50:05;;;;;;;0.90;0.90;;;24.80;66.70;;;;;;5066844;28;43980;-74
2022/08/22 04:52:40;;;;;;;1.00;1.00;;;24.80;66.90;;;;;;5066580;28;43935;-73
2022/08/22 04:55:15;;;;;;;1.03;1.03;;;24.80;66.70;;;;;;5067027;28;43863;-74
2022/08/22 04:57:54;;;;;;;0.90;0.90;;;24.70;66.40;;;;;;5065322;28;44227;-73
2022/08/22 05:00:24;;;;;;;1.07;1.07;;;24.70;67.10;;;;;;5066830;28;43870;-72
2022/08/22 05:02:56;;;;;;;0.90;0.90;;;24.70;67.40;;;;;;5065999;28;43389;-74
2022/08/22 05:05:25;;;;;;;0.90;0.90;;;24.70;67.00;;;;;;5067254;28;43931;-73
2022/08/22 05:07:54;;;;;;;0.90;0.90;;;24.70;66.70;;;;;;5065942;28;44194;-74
2022/08/22 05:10:24;;;;;;;0.90;0.90;;;24.70;67.10;;;;;;5066340;28;43944;-74
2022/08/22 05:12:54;;;;;;;0.60;0.60;;;24.60;67.50;;;;;;5066353;28;43954;-73
2022/08/22 05:15:25;;;;;;;1.00;1.00;;;24.70;67.20;;;;;;5066921;28;43970;-73
2022/08/22 05:17:53;;;;;;;0.97;0.97;;;24.80;66.60;;;;;;5066923;28;44054;-73
2022/08/22 05:20:23;;;;;;;0.90;0.90;;;25.00;66.00;;;;;;5066722;28;43757;-74
2022/08/22 05:22:53;;;;;;;0.90;0.90;;;25.00;65.70;;;;;;5064610;28;44620;-74
2022/08/22 05:25:24;;;;;;;0.90;0.90;;;25.10;65.80;;;;;;5066514;28;43853;-74
2022/08/22 05:27:54;;;;;;;0.80;0.80;;;25.00;65.60;;;;;;5066415;28;43872;-74
2022/08/22 05:30:25;;;;;;;1.00;1.00;;;25.00;66.10;;;;;;5066330;28;43971;-75
2022/08/22 05:32:56;;;;;;;0.87;0.87;;;24.90;66.40;;;;;;5066066;28;43955;-74
2022/08/22 05:35:27;;;;;;;0.87;0.87;;;24.90;66.30;;;;;;5065017;28;44087;-73
2022/08/22 05:37:55;;;;;;;0.90;0.90;;;24.90;66.10;;;;;;5066670;28;43809;-74
2022/08/22 05:40:24;;;;;;;0.97;0.97;;;24.80;66.70;;;;;;5065073;28;46495;-74
2022/08/22 05:42:52;;;;;;;0.90;0.90;;;24.80;66.90;;;;;;5064555;28;44658;-73
2022/08/22 05:45:20;;;;;;;1.00;1.00;;;24.80;66.60;;;;;;5066471;28;43844;-73
2022/08/22 05:47:50;;;;;;;0.90;0.90;;;24.70;66.20;;;;;;5064699;28;44161;-73
2022/08/22 05:50:20;;;;;;;1.10;1.10;;;24.70;67.10;;;;;;5064513;28;45980;-74
2022/08/22 05:52:57;;;;;;;1.07;1.07;;;24.70;67.10;;;;;;5065852;28;43998;-74
2022/08/22 05:55:28;;;;;;;1.00;1.00;;;24.80;66.70;;;;;;5066257;28;43367;-74
2022/08/22 05:58:07;;;;;;;0.90;0.90;;;24.90;66.10;;;;;;5066400;28;43968;-73
2022/08/22 06:00:38;;;;;;;1.00;1.00;;;25.00;65.70;;;;;;5064312;28;46017;-73
2022/08/22 06:03:13;;;;;;;0.80;0.80;;;25.10;65.70;;;;;;5065655;28;43951;-74
2022/08/22 06:05:42;;;;;;;1.03;1.03;;;25.00;65.60;;;;;;5066067;28;43338;-73
2022/08/22 06:08:14;;;;;;;1.00;1.00;;;25.00;66.00;;;;;;5065117;28;43908;-74
2022/08/22 06:10:43;;;;;;;0.80;0.80;;;24.90;66.30;;;;;;5065452;28;43942;-74
2022/08/22 06:13:19;;;;;;;0.90;0.90;;;24.90;66.30;;;;;;5065849;28;43352;-73
2022/08/22 06:15:53;;;;;;;0.93;0.93;;;24.80;66.10;;;;;;5069455;28;43882;-74
2022/08/22 06:18:24;;;;;;;0.90;0.90;;;24.80;66.40;;;;;;5069548;28;44001;-74
2022/08/22 06:20:56;;;;;;;0.90;0.90;;;24.80;66.90;;;;;;5067689;28;46809;-74
2022/08/22 06:23:26;;;;;;;1.00;1.00;;;24.70;66.70;;;;;;5069564;28;43990;-73
2022/08/22 06:25:55;;;;;;;0.90;0.90;;;24.70;66.30;;;;;;5067651;28;44023;-74
2022/08/22 06:28:25;;;;;;;1.00;1.00;;;24.70;66.80;;;;;;5069798;28;43857;-72
2022/08/22 06:30:54;;;;;;;0.97;0.97;;;24.70;67.20;;;;;;5068790;28;43995;-73
2022/08/22 06:33:29;;;;;;;0.70;0.70;;;24.70;67.10;;;;;;5069179;28;44022;-75
2022/08/22 06:38:53;;;;;;;0.80;0.80;;;24.70;66.60;;;;;;5069376;28;43445;-73
2022/08/22 06:41:21;;;;;;;0.90;0.90;;;24.60;67.40;;;;;;5069001;28;43983;-74
2022/08/22 06:43:51;;;;;;;0.90;0.90;;;24.70;67.20;;;;;;5068539;28;43989;-74
2022/08/22 06:46:19;;;;;;;0.83;0.83;;;24.80;66.80;;;;;;5069352;28;43371;-75
2022/08/22 06:48:50;;;;;;;0.87;0.87;;;24.90;66.10;;;;;;5069028;28;43896;-73
2022/08/22 06:51:18;;;;;;;0.70;0.70;;;25.10;65.70;;;;;;5068777;28;44664;-74
2022/08/22 06:53:49;;;;;;;0.80;0.80;;;25.10;65.70;;;;;;5068207;28;43934;-74
2022/08/22 06:56:19;;;;;;;1.07;1.07;;;25.00;65.60;;;;;;5068816;28;44027;-74
2022/08/22 06:58:47;;;;;;;0.90;0.90;;;25.00;65.90;;;;;;5068903;28;43453;-74
2022/08/22 07:01:17;;;;;;;0.70;0.70;;;24.90;66.10;;;;;;5068636;28;45016;-74
2022/08/22 07:03:49;;;;;;;0.93;0.90;;;24.90;66.20;;;;;;5068270;28;44439;-74
2022/08/22 07:06:21;;;;;;;1.00;1.00;;;24.90;66.10;;;;;;5067231;28;44018;-74
2022/08/22 07:08:52;;;;;;;0.90;0.90;;;24.80;66.40;;;;;;5069117;28;43884;-74
2022/08/22 07:11:22;;;;;;;0.90;0.90;;;24.80;66.90;;;;;;5068614;28;44483;-74
2022/08/22 07:13:56;;;;;;;0.80;0.80;;;24.70;66.60;;;;;;5066703;28;44671;-73
2022/08/22 07:16:29;;;;;;;0.77;0.77;;;24.70;66.30;;;;;;5068877;28;43411;-74
2022/08/22 07:18:59;;;;;;;0.80;0.80;;;24.70;66.90;;;;;;5067116;28;43914;-73
2022/08/22 07:21:28;;;;;;;0.90;0.90;;;24.70;67.10;;;;;;5068197;28;43979;-74
2022/08/22 07:23:59;;;;;;;1.00;1.00;;;24.70;66.70;;;;;;5066417;28;43997;-74
2022/08/22 07:26:31;;;;;;;0.90;0.90;;;24.80;66.10;;;;;;5066671;28;43932;-74
2022/08/22 07:29:03;;;;;;;0.90;0.90;;;25.00;65.80;;;;;;5068772;28;43309;-73
2022/08/22 07:31:39;;;;;;;0.90;0.90;;;25.00;65.80;;;;;;5068028;28;43897;-74
2022/08/22 07:34:23;;;;;;;0.90;0.90;;;25.00;65.60;;;;;;5068133;28;44006;-74
2022/08/22 07:36:56;;;;;;;0.90;0.90;;;24.90;65.80;;;;;;5068091;28;44035;-74
2022/08/22 07:39:25;;;;;;;1.10;1.10;;;24.90;66.40;;;;;;5068907;28;43385;-74
2022/08/22 07:42:05;;;;;;;0.93;0.93;;;24.80;66.20;;;;;;5066510;28;45653;-75
2022/08/22 07:44:37;;;;;;;0.90;0.90;;;24.80;66.10;;;;;;5068026;28;43977;-73
2022/08/22 07:47:07;;;;;;;0.90;0.90;;;24.80;66.20;;;;;;5066664;28;43913;-73
2022/08/22 07:49:38;;;;;;;0.90;0.90;;;24.70;66.90;;;;;;5068105;28;43952;-74
2022/08/22 07:52:16;;;;;;;0.80;0.80;;;24.70;66.80;;;;;;5067728;28;43969;-75
2022/08/22 07:54:46;;;;;;;1.03;1.03;;;24.70;66.50;;;;;;5067256;28;43506;-74
2022/08/22 07:57:15;;;;;;;1.00;1.00;;;24.70;66.50;;;;;;5068023;28;43903;-73
2022/08/22 07:59:47;;;;;;;0.90;0.90;;;24.70;67.30;;;;;;5066437;28;44106;-74
2022/08/22 08:02:16;;;;;;;1.00;1.00;;;24.70;67.20;;;;;;5067672;28;43943;-75
2022/08/22 08:04:45;;;;;;;1.00;1.00;;;24.80;66.80;;;;;;5067465;28;44390;-73
2022/08/22 08:07:14;;;;;;;0.90;0.90;;;24.90;66.20;;;;;;5067319;28;43309;-74
2022/08/22 08:09:44;;;;;;;0.80;0.80;;;25.00;66.10;;;;;;5067830;28;43987;-74
2022/08/22 08:12:12;;;;;;;0.90;0.90;;;25.00;65.90;;;;;;5066939;28;44798;-73
2022/08/22 08:14:41;;;;;;;0.93;0.93;;;24.90;65.80;;;;;;5065563;28;44597;-74
2022/08/22 08:17:12;;;;;;;1.00;1.00;;;24.90;66.40;;;;;;5067677;28;44106;-73
2022/08/22 08:19:41;;;;;;;0.90;0.90;;;24.90;66.50;;;;;;5067707;28;43874;-73
2022/08/22 08:22:12;;;;;;;0.90;0.90;;;24.80;66.30;;;;;;5067079;28;43964;-74
2022/08/22 08:24:40;;;;;;;0.90;0.90;;;24.80;66.20;;;;;;5066837;28;43823;-74
2022/08/22 08:30:02;;;;;;;1.03;1.03;;;24.70;66.90;;;;;;5067817;28;43999;-73
2022/08/22 08:32:31;;;;;;;0.90;0.90;;;24.70;66.70;;;;;;5065614;28;45838;-74
2022/08/22 08:35:03;;;;;;;0.97;0.97;;;24.70;66.40;;;;;;5066725;28;43857;-75
2022/08/22 08:37:37;;;;;;;0.90;0.90;;;24.60;67.00;;;;;;5066454;28;43998;-74
2022/08/22 08:40:10;;;;;;;0.90;0.90;;;24.60;67.30;;;;;;5067524;28;43919;-75
2022/08/22 08:45:55;;;;;;;1.20;1.20;;;24.80;66.50;;;;;;5066694;28;44123;-73
2022/08/22 08:49:17;;;;;;;0.83;0.83;;;25.00;66.10;;;;;;5067104;28;44036;-73
2022/08/22 08:52:15;;;;;;;0.93;0.93;;;25.00;66.00;;;;;;4997649;28;43894;-74
2022/08/22 08:54:54;;;;;;;0.80;0.80;;;24.90;65.80;;;;;;4987586;28;45596;-73
2022/08/22 08:57:34;;;;;;;0.90;0.90;;;24.80;66.30;;;;;;5053884;28;44006;-72
2022/08/22 09:00:09;;;;;;;0.97;0.97;;;24.80;66.40;;;;;;5067217;28;43898;-73
2022/08/22 09:02:56;;;;;;;1.00;1.00;;;24.80;66.30;;;;;;5067300;28;43910;-74
2022/08/22 09:05:59;;;;;;;0.80;0.80;;;24.70;66.30;;;;;;5065733;28;43853;-74
2022/08/22 09:09:04;;;;;;;1.03;1.03;;;24.70;66.80;;;;;;5065099;28;44761;-73
2022/08/22 09:12:00;;;;;;;0.93;0.93;;;24.70;66.70;;;;;;5066791;28;43965;-74
2022/08/22 09:14:41;;;;;;;1.03;1.03;;;24.70;66.40;;;;;;5067037;28;44054;-73
2022/08/22 09:17:43;;;;;;;0.80;0.80;;;24.60;67.10;;;;;;5066743;28;43938;-74
2022/08/22 09:20:26;;;;;;;0.87;0.87;;;24.70;67.10;;;;;;5066035;28;44289;-73
2022/08/22 09:23:23;;;;;;;0.90;0.90;;;24.70;66.60;;;;;;5066464;28;44079;-74
2022/08/22 09:25:52;;;;;;;0.83;0.83;;;24.90;66.10;;;;;;5065208;28;44012;-74
2022/08/22 09:28:24;;;;;;;0.90;0.90;;;25.00;65.90;;;;;;5064678;28;46106;-73
2022/08/22 09:31:09;;;;;;;0.90;0.90;;;25.00;65.80;;;;;;5066775;28;43445;-74
2022/08/22 09:34:00;;;;;;;0.87;0.87;;;24.90;65.60;;;;;;5066258;28;44063;-72
2022/08/22 09:36:35;;;;;;;1.00;1.00;;;24.90;66.20;;;;;;5066772;28;43792;-74
2022/08/22 09:39:05;;;;;;;1.03;1.03;;;24.80;66.10;;;;;;5064886;28;45519;-73
2022/08/22 09:41:38;;;;;;;0.80;0.80;;;24.80;65.90;;;;;;5065660;28;43436;-74
2022/08/22 09:44:15;;;;;;;1.00;1.00;;;24.80;66.00;;;;;;5066274;28;43990;-74
2022/08/22 09:46:55;;;;;;;1.10;1.10;;;24.70;66.50;;;;;;5066364;28;43786;-74
2022/08/22 09:49:31;;;;;;;1.00;1.00;;;24.70;66.40;;;;;;5068135;28;44847;-73
2022/08/22 09:52:04;;;;;;;0.90;0.90;;;24.70;66.30;;;;;;5069464;28;43474;-73
2022/08/22 09:54:46;;;;;;;0.90;0.90;;;24.70;66.20;;;;;;5070172;28;43928;-74
2022/08/22 09:57:20;;;;;;;1.00;1.00;;;24.70;67.00;;;;;;5070233;28;44096;-74
2022/08/22 10:00:19;;;;;;;1.03;1.03;;;24.70;67.00;;;;;;5069398;28;44042;-74
2022/08/22 10:03:01;;;;;;;1.00;1.00;;;24.80;66.70;;;;;;5063822;28;44285;-74
2022/08/22 10:05:29;;;;;;;0.90;0.90;;;24.90;66.20;;;;;;5069758;28;43380;-74
2022/08/22 10:08:26;;;;;;;1.10;1.10;;;24.90;66.70;;;;;;5069843;28;43961;-74
2022/08/22 10:11:02;;;;;;;1.00;1.00;;;24.90;65.90;;;;;;5069372;28;43993;-74
2022/08/22 10:13:41;;;;;;;1.10;1.10;;;24.90;65.80;;;;;;5069535;28;43777;-74
2022/08/22 10:16:20;;;;;;;1.00;1.00;;;24.80;66.20;;;;;;5069258;28;44086;-73
2022/08/22 10:18:51;;;;;;;1.13;1.13;;;24.80;66.20;;;;;;5069965;28;43924;-73
2022/08/22 10:21:29;;;;;;;0.90;0.90;;;24.80;66.10;;;;;;5069679;28;45041;-74
2022/08/22 10:23:59;;;;;;;1.10;1.10;;;24.70;65.80;;;;;;5068938;28;43988;-73
2022/08/22 10:26:30;;;;;;;1.40;1.20;;;24.70;66.40;;;;;;5067484;28;43979;-73
2022/08/22 10:29:09;;;;;;;1.30;1.30;;;24.70;66.20;;;;;;5068167;28;43581;-74
2022/08/22 10:31:40;;;;;;;1.20;1.20;;;24.70;66.10;;;;;;5068778;28;44031;-73
2022/08/22 10:34:29;;;;;;;1.87;1.43;;;24.60;65.50;;;;;;5068898;28;44026;-73
2022/08/22 10:37:01;;;;;;;1.97;1.60;;;24.60;61.70;;;;;;5068696;28;43883;-74
2022/08/22 10:39:33;;;;;;;1.50;1.50;;;24.60;61.20;;;;;;5069642;28;43391;-74
2022/08/22 10:42:10;;;;;;;1.60;1.60;;;24.70;60.90;;;;;;5068811;28;43863;-74
2022/08/22 10:44:41;;;;;;;1.30;1.30;;;24.80;61.00;;;;;;5067228;28;45354;-72
2022/08/22 10:47:13;;;;;;;1.27;1.27;;;24.80;61.10;;;;;;5068953;28;44301;-73
2022/08/22 10:49:45;;;;;;;1.80;1.80;;;24.80;61.70;;;;;;5069167;28;43952;-73
2022/08/22 10:52:21;;;;;;;1.40;1.30;;;24.80;62.20;;;;;;5068894;28;43941;-73
2022/08/22 10:54:51;;;;;;;1.43;1.43;;;24.80;62.10;;;;;;5068812;28;43971;-74
2022/08/22 10:57:31;;;;;;;1.20;1.20;;;24.80;62.20;;;;;;5068770;28;43931;-74
2022/08/22 11:00:05;;;;;;;1.30;1.30;;;24.80;62.50;;;;;;5068470;28;43409;-73
2022/08/22 11:02:47;;;;;;;1.30;1.30;;;24.70;62.60;;;;;;5067005;28;45536;-74
2022/08/22 11:05:36;;;;;;;1.50;1.50;;;24.70;62.70;;;;;;5068484;28;43898;-74
2022/08/22 11:08:26;;;;;;;1.60;1.60;;;24.70;62.20;;;;;;5067093;28;43989;-74
2022/08/22 11:11:14;;;;;;;1.70;1.70;;;24.80;61.40;;;;;;5058703;28;44188;-74
2022/08/22 11:14:05;;;;;;;1.50;1.50;;;24.90;61.00;;;;;;5068156;28;43691;-73
2022/08/22 11:16:44;;;;;;;1.57;1.50;;;24.90;61.20;;;;;;5068074;28;43907;-74
2022/08/22 11:19:18;;;;;;;1.53;1.50;;;24.90;61.50;;;;;;5068474;28;43964;-74
2022/08/22 11:21:56;;;;;;;1.53;1.53;;;24.80;61.70;;;;;;5068377;28;43921;-74
2022/08/22 11:25:01;;;;;;;1.53;1.53;;;24.80;61.40;;;;;;5068216;28;43623;-73
2022/08/22 11:27:37;;;;;;;1.40;1.40;;;24.80;61.40;;;;;;5068144;28;43347;-74
2022/08/22 11:30:09;;;;;;;1.70;1.60;;;24.70;61.30;;;;;;5066847;28;43888;-72
2022/08/22 11:33:05;;;;;;;2.90;1.53;;;24.70;61.60;;;;;;5068309;28;43915;-73
2022/08/22 11:35:37;;;;;;;1.60;1.60;;;24.70;61.30;;;;;;5067738;28;43855;-72
2022/08/22 11:38:09;;;;;;;1.80;1.80;;;24.70;60.60;;;;;;5066593;28;44747;-73
2022/08/22 11:40:40;;;;;;;1.70;1.70;;;24.80;60.80;;;;;;5067948;28;44083;-73
2022/08/22 11:43:15;;;;;;;2.53;1.93;;;24.80;60.70;;;;;;5068463;28;43938;-74
2022/08/22 11:45:47;;;;;;;3.03;1.70;;;24.80;60.80;;;;;;5066348;28;45504;-74
2022/08/22 11:48:20;;;;;;;1.60;1.60;;;24.80;60.20;;;;;;5066595;28;44414;-73
2022/08/22 11:50:52;;;;;;;1.43;1.40;;;24.80;60.50;;;;;;5067705;28;43923;-73
2022/08/22 11:53:24;;;;;;;1.60;1.60;;;24.70;61.00;;;;;;5067036;28;43997;-73
2022/08/22 11:55:59;;;;;;;1.83;1.80;;;24.70;60.50;;;;;;5067305;28;44028;-74
2022/08/22 11:58:41;;;;;;;1.87;1.87;;;24.70;61.10;;;;;;5068029;28;43889;-74
2022/08/22 12:01:12;;;;;;;1.93;1.83;;;24.70;59.80;;;;;;5067753;28;43944;-75
2022/08/22 12:03:58;;;;;;;2.93;1.90;;;24.80;59.20;;;;;;5066368;28;43849;-74
2022/08/22 12:06:40;;;;;;;1.70;1.70;;;24.90;58.20;;;;;;5067174;28;43998;-73
2022/08/22 12:09:37;;;;;;;1.90;1.80;;;25.00;58.40;;;;;;5067608;28;44099;-74
2022/08/22 12:12:24;;;;;;;1.90;1.80;;;25.00;59.30;;;;;;5065268;28;44016;-73
2022/08/22 12:14:58;;;;;;;1.83;1.80;;;24.90;60.00;;;;;;5037333;28;44025;-73
2022/08/22 12:18:08;;;;;;;2.07;1.97;;;24.90;59.10;;;;;;5067553;28;43926;-74
2022/08/22 12:20:53;;;;;;;1.80;1.80;;;24.80;59.40;;;;;;5065637;28;44730;-74
2022/08/22 12:23:40;;;;;;;2.10;2.00;;;24.80;60.00;;;;;;5067587;28;43534;-73
2022/08/22 12:26:22;;;;;;;2.30;2.20;;;24.80;59.70;;;;;;5067902;28;44298;-74
2022/08/22 12:28:58;;;;;;;2.20;2.10;;;24.70;59.20;;;;;;5065812;28;46290;-73
2022/08/22 12:31:30;;;;;;;2.03;1.73;;;24.70;60.20;;;;;;5067138;28;44272;-74
2022/08/22 12:34:09;;;;;;;2.30;2.10;;;24.70;60.50;;;;;;5067114;28;43917;-74
2022/08/22 12:36:59;;;;;;;2.10;2.00;;;24.70;59.70;;;;;;5067297;28;43411;-74
2022/08/22 12:39:59;;;;;;;2.00;1.93;;;24.60;59.80;;;;;;5067528;28;45071;-74
2022/08/22 12:42:43;;;;;;;1.87;1.87;;;24.60;60.60;;;;;;5053231;28;43955;-74
2022/08/22 12:45:22;;;;;;;2.40;2.20;;;24.60;60.20;;;;;;5067339;28;43894;-74
2022/08/22 12:47:56;;;;;;;2.23;2.10;;;24.60;59.80;;;;;;5067467;28;43424;-74
2022/08/22 12:50:31;;;;;;;2.10;1.90;;;24.60;59.20;;;;;;5067169;28;44708;-74
2022/08/22 12:53:11;;;;;;;2.30;2.10;;;24.80;58.80;;;;;;5066550;28;44023;-75
2022/08/22 12:56:08;;;;;;;2.50;2.40;;;24.90;58.30;;;;;;5066994;28;43447;-74
2022/08/22 12:59:00;;;;;;;2.00;1.90;;;25.00;58.10;;;;;;5065392;28;44187;-73
2022/08/22 13:01:34;;;;;;;1.80;1.80;;;25.00;58.50;;;;;;5066585;28;43949;-74
2022/08/22 13:04:03;;;;;;;1.80;1.77;;;25.00;59.20;;;;;;5065246;28;44496;-74
2022/08/22 13:06:51;;;;;;;2.23;2.13;;;24.90;58.40;;;;;;5065135;28;44026;-73
2022/08/22 13:09:25;;;;;;;2.00;2.00;;;24.80;58.60;;;;;;5067474;28;43991;-74
2022/08/22 13:11:59;;;;;;;2.20;1.80;;;24.80;59.40;;;;;;5066700;28;44625;-75
2022/08/22 13:14:30;;;;;;;2.10;2.00;;;24.80;59.60;;;;;;5065022;28;45441;-74
2022/08/22 13:17:01;;;;;;;2.20;2.10;;;24.70;58.90;;;;;;5066441;28;43972;-74
2022/08/22 13:20:07;;;;;;;1.83;1.83;;;24.70;59.00;;;;;;5066924;28;44009;-73
2022/08/22 13:22:35;;;;;;;2.10;2.00;;;24.70;59.40;;;;;;5065593;28;44002;-73
2022/08/22 13:25:06;;;;;;;2.10;2.00;;;24.70;59.20;;;;;;5066776;28;44344;-73
2022/08/22 13:27:39;;;;;;;1.83;1.73;;;24.60;58.80;;;;;;5065784;28;43375;-74
2022/08/22 13:30:21;;;;;;;2.00;2.00;;;24.60;58.00;;;;;;5067093;28;43892;-73
2022/08/22 13:32:50;;;;;;;2.10;2.00;;;24.70;57.40;;;;;;5066612;28;44825;-73
2022/08/22 13:35:22;;;;;;;1.73;1.73;;;24.80;57.90;;;;;;5066269;28;45083;-74
2022/08/22 13:37:53;;;;;;;2.10;2.00;;;24.90;57.50;;;;;;5066485;28;43837;-73
2022/08/22 13:40:25;;;;;;;2.10;2.00;;;24.90;58.30;;;;;;5065684;28;44258;-74
2022/08/22 13:43:01;;;;;;;2.03;2.00;;;24.80;58.60;;;;;;5066170;28;43598;-74
2022/08/22 13:45:31;;;;;;;2.00;1.90;;;24.80;58.00;;;;;;5064886;28;44425;-73
2022/08/22 13:48:01;;;;;;;1.93;1.90;;;24.80;58.40;;;;;;5066088;28;43865;-74
2022/08/22 13:50:32;;;;;;;2.20;2.00;;;24.70;58.70;;;;;;5066389;28;43993;-75